Time;durP1;ratioP1;P1;durP2;ratioP2;P2;SDS_P1;SDS_P2;PMS_P1;PMS_P2;Temp;Humidity;BMP_temperature;BMP_pressure;BME280_temperature;BME280_humidity;BME280_pressure;Samples;Min_cycle;Max_cycle;Signal;HPM_P1;HPM_P2
2022/02/04 00:23:45;;;;;;;;;10.50;10.50;;;;;10.89;67.29;101433.38;5096787;27;45294;-73
2022/02/04 00:26:18;;;;;;;;;14.75;13.50;;;;;10.92;66.94;101426.41;5098496;27;45314;-73
2022/02/04 00:31:49;;;;;;;;;14.33;11.00;;;;;10.80;66.95;101404.13;5094564;27;46209;-73
2022/02/04 00:34:18;;;;;;;;;14.00;11.33;;;;;10.93;66.98;101422.91;5078580;27;45601;-73
2022/02/04 00:39:30;;;;;;;;;14.67;13.33;;;;;10.93;67.14;101417.63;5077600;27;45326;-73
2022/02/04 00:42:02;;;;;;;;;15.00;13.00;;;;;10.94;67.13;101418.50;5089186;27;46556;-72
2022/02/04 00:44:29;;;;;;;;;16.33;11.33;;;;;10.94;67.23;101416.75;5092335;27;45266;-73
2022/02/04 00:50:21;;;;;;;;;11.67;10.67;;;;;10.96;66.94;101414.13;5095570;27;45421;-73
2022/02/04 00:52:19;;;;;;;;;14.00;11.33;;;;;10.99;67.25;101401.88;5085632;27;46551;-74
2022/02/04 01:27:30;;;;;;;;;13.75;13.75;;;;;10.89;67.36;101396.41;5075883;27;45358;-73
2022/02/04 01:30:05;;;;;;;;;16.50;11.75;;;;;10.90;67.68;101401.69;5077067;27;45502;-73
2022/02/04 01:32:31;;;;;;;;;12.25;9.50;;;;;10.82;67.24;101384.81;5094229;27;45646;-74
2022/02/04 01:34:56;;;;;;;;;12.50;12.50;;;;;10.88;67.44;101395.50;5088523;27;45753;-73
2022/02/04 01:37:22;;;;;;;;;10.00;10.00;;;;;10.92;67.48;101410.56;5086636;27;46503;-73
2022/02/04 01:39:47;;;;;;;;;11.25;10.00;;;;;10.95;67.21;101404.44;5110080;27;45329;-73
2022/02/04 01:42:13;;;;;;;;;9.67;9.67;;;;;10.97;67.45;101406.25;5091308;27;45248;-72
2022/02/04 01:44:39;;;;;;;;;12.25;9.75;;;;;10.99;67.30;101406.28;5088326;27;46748;-73
2022/02/04 01:47:04;;;;;;;;;15.67;12.67;;;;;10.92;67.30;101380.56;5074941;28;45529;-73
2022/02/04 01:49:30;;;;;;;;;15.00;12.50;;;;;11.00;67.04;101392.19;5075451;27;45357;-73
2022/02/04 01:51:55;;;;;;;;;14.25;14.25;;;;;11.04;67.14;101401.97;5087397;27;45266;-73
2022/02/04 01:54:21;;;;;;;;;11.75;11.25;;;;;11.04;67.17;101401.97;5086408;27;46340;-73
2022/02/04 01:56:46;;;;;;;;;15.00;14.00;;;;;10.92;67.37;101377.94;5083762;27;45496;-73
2022/02/04 01:59:12;;;;;;;;;14.75;13.00;;;;;11.05;67.00;101406.38;5067385;28;47149;-73
2022/02/04 02:01:37;;;;;;;;;15.50;14.00;;;;;11.03;67.24;101397.53;5078881;28;45195;-73
2022/02/04 02:04:05;;;;;;;;;13.75;11.00;;;;;11.02;67.00;101394.03;5088863;27;45485;-73
2022/02/04 02:06:45;;;;;;;;;21.25;12.75;;;;;11.05;67.26;101397.56;5112599;27;45463;-73
2022/02/04 02:09:10;;;;;;;;;14.50;14.00;;;;;11.03;67.08;101397.53;5085941;27;45259;-73
2022/02/04 02:11:36;;;;;;;;;14.25;11.50;;;;;11.04;67.40;101396.69;5092751;27;45393;-73
2022/02/04 02:14:04;;;;;;;;;14.00;13.50;;;;;11.06;67.42;101397.59;5081511;27;45572;-73
2022/02/04 02:32:50;;;;;;;;;18.50;11.75;;;;;11.10;67.55;101399.44;5090994;27;46227;-73
2022/02/04 02:44:32;;;;;;;;;14.67;12.67;;;;;10.96;68.05;101358.63;5099233;27;45334;-73
2022/02/04 02:59:57;;;;;;;;;14.00;9.33;;;;;11.05;68.05;101342.97;5047451;28;45234;-73
2022/02/04 03:02:22;;;;;;;;;17.00;12.67;;;;;11.07;68.33;101356.19;5087654;27;45401;-73
2022/02/04 03:04:47;;;;;;;;;16.00;10.25;;;;;11.09;68.08;101357.13;5097020;27;45488;-73
2022/02/04 03:07:13;;;;;;;;;10.33;8.00;;;;;11.06;68.36;101354.41;5063469;28;47623;-73
2022/02/04 03:09:38;;;;;;;;;10.50;9.00;;;;;10.97;67.88;101334.00;5083594;27;45200;-73
2022/02/04 03:12:04;;;;;;;;;11.67;9.00;;;;;11.02;68.07;101343.81;5097872;27;45267;-73
2022/02/04 03:14:30;;;;;;;;;12.00;8.00;;;;;10.93;68.36;101333.06;5098632;27;45296;-73
2022/02/04 03:16:56;;;;;;;;;7.33;6.33;;;;;10.91;68.16;101324.22;5081833;27;46304;-74
2022/02/04 03:19:23;;;;;;;;;7.33;6.33;;;;;10.99;68.11;101332.28;5091989;27;45473;-73
2022/02/04 03:21:49;;;;;;;;;5.33;5.33;;;;;10.91;68.08;101318.91;5078733;27;45281;-73
2022/02/04 03:24:18;;;;;;;;;7.33;6.67;;;;;10.94;68.36;101336.59;5087468;27;45608;-73
2022/02/04 03:29:18;;;;;;;;;8.67;5.67;;;;;10.97;68.35;101334.00;5098891;27;45353;-73
2022/02/04 03:31:49;;;;;;;;;7.67;4.00;;;;;10.97;68.10;101329.63;5082200;27;45503;-73
2022/02/04 03:34:15;;;;;;;;;6.00;4.67;;;;;10.98;68.35;101335.81;5079709;27;45500;-74
2022/02/04 03:36:41;;;;;;;;;8.00;7.00;;;;;10.94;68.50;101316.34;5095858;27;45791;-73
2022/02/04 03:39:06;;;;;;;;;7.67;5.00;;;;;10.87;68.09;101314.47;5078170;27;45198;-73
2022/02/04 03:41:32;;;;;;;;;9.00;7.00;;;;;10.95;68.50;101319.88;5092112;27;45435;-72
2022/02/04 03:43:57;;;;;;;;;8.50;8.50;;;;;10.87;68.31;101321.50;5095800;27;45488;-73
2022/02/04 03:46:23;;;;;;;;;9.67;8.00;;;;;10.93;68.29;101338.34;5098400;27;45926;-73
2022/02/04 03:48:48;;;;;;;;;6.67;6.33;;;;;10.87;68.10;101321.50;5096608;27;49767;-73
2022/02/04 03:51:14;;;;;;;;;8.33;7.00;;;;;10.96;68.25;101325.19;5084539;27;45218;-73
2022/02/04 03:53:40;;;;;;;;;9.00;7.33;;;;;10.95;68.06;101326.06;5091270;27;45427;-73
2022/02/04 03:56:05;;;;;;;;;9.00;7.75;;;;;10.94;68.30;101324.28;5076797;28;45680;-73
2022/02/04 03:58:32;;;;;;;;;9.33;8.00;;;;;10.97;68.49;101323.41;5092923;27;45427;-73
2022/02/04 04:00:58;;;;;;;;;10.00;8.33;;;;;10.92;68.64;101326.00;5114338;27;45383;-73
2022/02/04 04:03:23;;;;;;;;;9.00;8.00;;;;;10.83;68.05;101304.72;5080158;27;45511;-73
2022/02/04 04:05:50;;;;;;;;;13.50;8.50;;;;;10.96;68.49;101322.53;5097733;27;46561;-73
2022/02/04 04:08:17;;;;;;;;;9.50;8.00;;;;;10.97;68.36;101324.34;5096048;27;45332;-73
2022/02/04 04:10:43;;;;;;;;;15.25;9.25;;;;;10.90;68.81;101317.16;5094563;27;45478;-73
2022/02/04 04:13:09;;;;;;;;;13.25;11.50;;;;;10.94;68.45;101326.91;5092204;27;45434;-73
2022/02/04 04:15:34;;;;;;;;;11.00;9.25;;;;;10.94;68.34;101326.91;5059538;28;46430;-73
2022/02/04 04:18:00;;;;;;;;;11.50;9.50;;;;;10.95;68.23;101323.41;5077705;27;45337;-73
2022/02/04 04:20:26;;;;;;;;;10.00;7.50;;;;;10.95;68.68;101315.47;5090691;27;45408;-73
2022/02/04 04:22:52;;;;;;;;;11.50;9.00;;;;;10.96;68.45;101314.59;5098191;27;45468;-74
2022/02/04 04:25:17;;;;;;;;;14.33;9.67;;;;;10.90;68.35;101300.41;5096792;27;47071;-73
2022/02/04 04:27:43;;;;;;;;;10.00;9.00;;;;;10.94;68.29;101304.91;5096432;27;45359;-73
2022/02/04 04:30:09;;;;;;;;;12.33;7.33;;;;;10.90;68.45;101289.84;5084493;27;45446;-73
2022/02/04 04:32:35;;;;;;;;;15.33;10.67;;;;;10.98;68.52;101312.03;5095324;27;45353;-73
2022/02/04 04:35:01;;;;;;;;;13.50;10.25;;;;;10.91;68.45;101305.72;5104649;27;45644;-74
2022/02/04 04:37:26;;;;;;;;;11.00;10.50;;;;;10.97;68.82;101316.41;5077135;27;45219;-73
2022/02/04 05:28:56;;;;;;;;;12.00;12.00;;;;;10.94;68.45;101266.16;5076675;27;45647;-74
2022/02/04 05:31:21;;;;;;;;;12.50;12.50;;;;;11.01;68.31;101278.59;5094073;27;45347;-73
2022/02/04 05:33:48;;;;;;;;;21.00;15.00;;;;;10.98;68.45;101267.97;5083443;27;45289;-75
2022/02/04 05:36:14;;;;;;;;;17.25;14.00;;;;;11.00;68.24;101266.25;5098637;27;45490;-76
2022/02/04 05:38:40;;;;;;;;;13.00;12.75;;;;;11.00;68.45;101266.25;5081792;27;47165;-77
2022/02/04 05:41:08;;;;;;;;;15.00;10.00;;;;;11.01;68.26;101270.66;5097736;27;45452;-79
2022/02/04 05:43:36;;;;;;;;;16.00;14.25;;;;;10.88;68.50;101246.69;5098878;27;45219;-78
2022/02/04 05:46:11;;;;;;;;;13.25;11.50;;;;;11.05;68.13;101271.59;5086769;27;45319;-76
2022/02/04 05:48:40;;;;;;;;;16.50;15.00;;;;;11.05;68.36;101257.50;5085161;27;45792;-77
2022/02/04 05:53:51;;;;;;;;;15.00;12.50;;;;;10.98;68.19;101230.09;5099082;27;45229;-76
2022/02/04 06:08:16;;;;;;;;;16.25;14.25;;;;;11.21;67.96;101264.81;5092777;27;45301;-74
2022/02/04 06:10:30;;;;;;;;;19.75;16.75;;;;;11.20;67.90;101269.22;5083584;27;45533;-74
2022/02/04 06:23:12;;;;;;;;;17.50;15.00;;;;;11.17;68.20;101273.53;5108535;27;45532;-74
2022/02/04 06:25:41;;;;;;;;;23.25;15.25;;;;;11.17;68.30;101269.16;5098865;27;45564;-75
2022/02/04 06:28:07;;;;;;;;;16.25;15.50;;;;;11.18;68.12;101262.09;5094698;27;45381;-74
2022/02/04 06:30:32;;;;;;;;;16.50;13.50;;;;;11.18;68.02;101259.47;5087497;27;46391;-75
2022/02/04 06:32:58;;;;;;;;;18.50;16.25;;;;;11.13;67.93;101250.56;5086435;27;45493;-75
2022/02/04 06:35:23;;;;;;;;;23.25;18.50;;;;;11.16;68.33;101259.44;5093169;27;45535;-73
2022/02/04 06:37:48;;;;;;;;;22.25;15.75;;;;;11.20;68.09;101266.56;5085519;27;46620;-74
2022/02/04 06:40:14;;;;;;;;;20.00;15.00;;;;;11.21;67.91;101254.25;5095815;27;45929;-73
2022/02/04 06:42:39;;;;;;;;;20.00;14.75;;;;;11.23;68.00;101257.78;5092469;27;45524;-72
2022/02/04 06:45:08;;;;;;;;;21.25;17.00;;;;;11.23;67.95;101263.94;5091097;27;45952;-73
2022/02/04 06:47:34;;;;;;;;;18.50;15.25;;;;;11.22;67.84;101266.59;5094861;27;45522;-73
2022/02/04 06:49:59;;;;;;;;;22.00;15.50;;;;;11.20;67.89;101257.75;5078811;27;47680;-74
2022/02/04 06:52:24;;;;;;;;;20.25;16.00;;;;;11.18;67.96;101252.41;5091224;27;45220;-74
2022/02/04 06:54:50;;;;;;;;;15.00;15.00;;;;;11.12;68.00;101246.16;5090231;27;47626;-74
2022/02/04 06:57:15;;;;;;;;;15.00;12.00;;;;;11.18;67.83;101251.53;5066110;27;45448;-73
2022/02/04 06:59:43;;;;;;;;;16.25;14.00;;;;;11.18;67.79;101265.63;5093426;27;45574;-74
2022/02/04 07:02:09;;;;;;;;;20.00;15.50;;;;;11.12;67.72;101248.81;5089758;27;45404;-74
2022/02/04 07:04:35;;;;;;;;;20.00;11.00;;;;;11.18;68.02;101259.47;5085344;27;45517;-73
2022/02/04 07:07:02;;;;;;;;;20.00;14.25;;;;;11.19;67.55;101270.09;5098257;27;45328;-73
2022/02/04 07:19:48;;;;;;;;;19.50;15.75;;;;;11.08;67.71;101265.47;5088804;27;46442;-73
2022/02/04 07:22:18;;;;;;;;;14.25;12.75;;;;;11.09;67.97;101264.63;5094029;27;45303;-72
2022/02/04 07:24:44;;;;;;;;;17.00;11.00;;;;;11.10;67.83;101263.75;5094246;27;45476;-74
2022/02/04 07:27:10;;;;;;;;;16.50;13.00;;;;;11.11;67.63;101257.59;5096128;27;45444;-73
2022/02/04 07:29:36;;;;;;;;;16.00;13.50;;;;;11.11;67.44;101263.78;5086579;27;49155;-73
2022/02/04 07:32:07;;;;;;;;;14.25;12.75;;;;;11.08;67.38;101258.47;5091349;27;46072;-72
2022/02/04 07:42:28;;;;;;;;;20.25;11.25;;;;;10.74;68.04;101259.63;5089998;27;45705;-75
2022/02/04 07:44:54;;;;;;;;;14.00;10.00;;;;;10.72;68.13;101248.16;5086463;27;46037;-75
2022/02/04 07:47:19;;;;;;;;;16.25;12.25;;;;;10.74;67.99;101244.69;5087757;27;45623;-74
2022/02/04 07:49:45;;;;;;;;;17.00;14.00;;;;;10.79;68.06;101244.75;5089320;27;46737;-75
2022/02/04 07:52:10;;;;;;;;;17.75;14.00;;;;;10.83;68.07;101238.66;5068233;27;45480;-75
2022/02/04 07:54:36;;;;;;;;;13.00;11.50;;;;;10.83;67.66;101243.06;5090220;27;45810;-75
2022/02/04 07:57:01;;;;;;;;;12.00;9.00;;;;;10.69;67.73;101224.34;5072973;27;45630;-74
2022/02/04 07:59:26;;;;;;;;;10.25;9.75;;;;;10.76;67.92;101234.16;5093123;27;46758;-73
2022/02/04 08:01:52;;;;;;;;;14.25;11.25;;;;;10.80;67.91;101240.34;5071103;27;46572;-74
2022/02/04 08:04:23;;;;;;;;;20.67;14.67;;;;;10.79;67.94;101234.19;5092661;27;45685;-74
2022/02/04 08:07:00;;;;;;;;;11.00;10.00;;;;;10.76;67.79;101231.53;5086826;27;45540;-74
2022/02/04 08:22:32;;;;;;;;;15.00;11.75;;;;;11.04;67.04;101256.63;5092285;27;45515;-73
2022/02/04 08:25:06;;;;;;;;;10.25;9.00;;;;;10.95;66.93;101240.63;5092457;27;45318;-73
2022/02/04 08:35:35;;;;;;;;;14.00;10.00;;;;;11.06;66.89;101248.72;5091532;27;45417;-75
2022/02/04 08:54:00;;;;;;;;;16.67;11.67;;;;;11.12;66.52;101254.97;5090655;27;45425;-74
2022/02/04 08:56:37;;;;;;;;;11.00;9.00;;;;;11.14;66.54;101247.09;5085041;27;45909;-74
2022/02/04 08:59:10;;;;;;;;;12.67;10.00;;;;;11.18;66.38;101251.53;5079197;27;45706;-74
2022/02/04 09:01:41;;;;;;;;;7.00;7.00;;;;;11.19;66.15;101254.22;5069647;27;46571;-74
2022/02/04 09:04:11;;;;;;;;;9.00;9.00;;;;;11.22;65.70;101245.44;5086476;27;45572;-73
2022/02/04 09:06:40;;;;;;;;;10.00;8.00;;;;;11.23;66.13;101232.22;5091301;27;45614;-73
2022/02/04 09:09:12;;;;;;;;;11.00;10.00;;;;;11.24;65.39;101234.03;5090378;27;45636;-74
2022/02/04 09:17:16;;;;;;;;;9.00;9.00;;;;;11.42;65.71;101228.09;5087495;27;45944;-73
2022/02/04 09:19:58;;;;;;;;;8.00;8.00;;;;;11.38;65.39;101199.84;5092735;27;45866;-74
2022/02/04 09:25:05;;;;;;;;;8.00;7.00;;;;;11.48;64.35;101200.84;5092265;27;45581;-75
2022/02/04 09:27:30;;;;;;;;;9.00;7.67;;;;;11.57;64.65;101219.50;5109947;27;45460;-74
2022/02/04 09:29:56;;;;;;;;;9.00;7.67;;;;;11.54;64.80;101220.34;5087390;27;45561;-74
2022/02/04 09:32:21;;;;;;;;;10.00;8.00;;;;;11.50;64.42;101218.53;5089168;27;47239;-74
2022/02/04 09:34:47;;;;;;;;;9.00;8.00;;;;;11.46;64.60;101207.91;5090600;27;45500;-74
2022/02/04 09:37:12;;;;;;;;;9.67;7.67;;;;;11.52;64.78;101222.09;5111632;27;45453;-75
2022/02/04 09:39:38;;;;;;;;;10.33;9.33;;;;;11.50;64.47;101229.13;5090380;27;45733;-74
2022/02/04 09:42:03;;;;;;;;;10.67;9.00;;;;;11.51;64.82;101228.25;5092563;27;46347;-73
2022/02/04 09:44:29;;;;;;;;;10.00;9.00;;;;;11.50;65.05;101228.19;5088679;27;45509;-73
2022/02/04 09:46:55;;;;;;;;;12.00;8.00;;;;;11.49;65.32;101237.00;5089399;27;45392;-75
2022/02/04 09:49:27;;;;;;;;;17.33;9.33;;;;;11.48;65.48;101224.66;5217462;22;45857;-73
2022/02/04 10:12:09;;;;;;;;;8.67;8.00;;;;;11.40;66.55;101224.56;5057704;28;45593;-73
2022/02/04 10:17:21;;;;;;;;;11.67;10.67;;;;;11.59;66.39;101191.31;5060251;28;45534;-73
2022/02/04 10:22:17;;;;;;;;;9.67;9.00;;;;;11.92;65.61;101180.25;5056894;28;45527;-73
2022/02/04 10:24:42;;;;;;;;;14.67;10.33;;;;;12.00;64.94;101175.94;5054321;28;45912;-74
2022/02/04 10:27:18;;;;;;;;;9.67;9.67;;;;;12.12;65.47;101187.53;5071835;28;45742;-72
2022/02/04 10:30:14;;;;;;;;;14.00;9.00;;;;;12.22;64.97;101187.66;5073121;28;45501;-74
2022/02/04 10:32:43;;;;;;;;;7.67;7.67;;;;;12.26;64.80;101186.81;5056276;28;45567;-74
2022/02/04 10:35:34;;;;;;;;;6.00;6.00;;;;;12.23;64.01;101170.00;5076603;28;47484;-74
2022/02/04 10:38:16;;;;;;;;;5.00;5.00;;;;;12.28;63.43;101179.75;5076154;28;45563;-74
2022/02/04 10:49:06;;;;;;;;;5.00;5.00;;;;;12.53;63.67;101172.94;5055747;28;46555;-74
2022/02/04 10:52:26;;;;;;;;;8.00;5.33;;;;;12.59;63.45;101172.97;5059559;28;46003;-73
2022/02/04 10:55:01;;;;;;;;;10.67;5.00;;;;;12.64;63.24;101177.44;5064852;28;45536;-75
2022/02/04 10:57:45;;;;;;;;;8.67;5.00;;;;;12.67;62.89;101174.78;5069827;27;45471;-76
2022/02/04 11:05:17;;;;;;;;;6.67;5.00;;;;;12.58;62.82;101171.22;5064607;28;45447;-74
2022/02/04 11:35:03;;;;;;;;;4.33;4.00;;;;;13.02;61.35;101130.00;5075061;28;45340;-81
2022/02/04 11:55:12;;;;;;;;;3.00;3.00;;;;;13.67;59.05;101060.44;5072362;28;45461;-74
2022/02/04 11:57:55;;;;;;;;;2.00;2.00;;;;;13.76;59.11;101060.44;5068075;27;46540;-74
2022/02/04 12:00:22;;;;;;;;;2.00;2.00;;;;;13.85;58.89;101080.81;5065386;28;45634;-73
2022/02/04 12:02:50;;;;;;;;;3.33;2.00;;;;;13.90;57.60;101057.78;5067517;28;45687;-73
2022/02/04 12:05:18;;;;;;;;;4.67;3.00;;;;;13.96;56.64;101081.72;5051861;28;45565;-73
2022/02/04 12:08:12;;;;;;;;;5.00;2.33;;;;;14.03;57.88;101059.59;5065117;28;45477;-74
2022/02/04 12:10:41;;;;;;;;;3.00;3.00;;;;;14.18;56.79;101049.88;5074026;28;45185;-74
2022/02/04 12:13:09;;;;;;;;;1.33;1.33;;;;;14.26;56.74;101048.06;5077020;28;46088;-73
2022/02/04 12:15:41;;;;;;;;;2.00;1.00;;;;;14.22;55.87;101043.66;5073013;28;45408;-73
2022/02/04 12:18:10;;;;;;;;;3.00;3.00;;;;;14.12;56.78;101054.28;5076154;28;45311;-74
2022/02/04 12:20:49;;;;;;;;;1.00;1.00;;;;;14.02;55.25;101036.59;5076651;28;45374;-74
2022/02/04 12:23:31;;;;;;;;;5.00;2.00;;;;;14.00;56.32;101033.03;5058519;28;47734;-74
2022/02/04 12:26:09;;;;;;;;;4.00;1.00;;;;;14.02;56.48;101022.44;5066274;28;45420;-73
2022/02/04 12:28:44;;;;;;;;;1.67;1.00;;;;;14.00;55.75;101017.09;5046588;28;45478;-74
2022/02/04 12:31:26;;;;;;;;;2.67;1.67;;;;;14.10;56.42;101010.03;5066815;28;45578;-74
2022/02/04 12:33:56;;;;;;;;;1.67;1.67;;;;;14.20;55.53;101003.81;5075601;28;46761;-74
2022/02/04 12:36:26;;;;;;;;;0.00;0.00;;;;;14.33;55.25;101010.03;5081907;27;45509;-73
2022/02/04 12:38:55;;;;;;;;;3.33;1.00;;;;;14.41;55.46;101000.25;5054512;28;45165;-72
2022/02/04 12:41:25;;;;;;;;;2.00;2.00;;;;;14.44;55.44;100984.31;5074278;28;45584;-75
2022/02/04 12:43:55;;;;;;;;;2.00;1.00;;;;;14.55;55.56;100993.19;5054342;28;45991;-74
2022/02/04 12:46:21;;;;;;;;;0.33;0.33;;;;;14.50;53.77;100979.03;5051875;28;45380;-74
2022/02/04 12:48:59;;;;;;;;;1.00;1.00;;;;;14.46;54.78;100994.94;5037604;28;45514;-75
2022/02/04 12:51:51;;;;;;;;;4.00;0.33;;;;;14.35;53.72;100977.25;5072963;28;45772;-75
2022/02/04 12:54:53;;;;;;;;;0.67;0.67;;;;;14.40;54.41;100978.13;5071766;28;46650;-75
2022/02/04 13:02:35;;;;;;;;;0.00;0.00;;;;;14.48;54.29;100975.47;5073591;28;45474;-78
2022/02/04 13:07:51;;;;;;;;;0.67;0.00;;;;;14.44;54.46;100952.44;5069932;28;47048;-77
2022/02/04 13:10:21;;;;;;;;;1.00;1.00;;;;;14.48;53.54;100956.84;5072074;28;45620;-78
2022/02/04 13:13:08;;;;;;;;;2.00;0.33;;;;;14.41;53.44;100955.09;5072418;28;45596;-77
2022/02/04 13:15:35;;;;;;;;;6.00;0.00;;;;;14.22;52.28;100951.59;5070428;28;48373;-77
2022/02/04 13:18:11;;;;;;;;;0.00;0.00;;;;;14.18;52.77;100968.44;5071331;28;45502;-78
2022/02/04 13:20:38;;;;;;;;;0.00;0.00;;;;;14.04;53.66;100954.28;5053746;28;45398;-83
2022/02/04 13:23:10;;;;;;;;;0.67;0.00;;;;;13.99;53.44;100951.63;5062405;28;45364;-80
2022/02/04 13:25:37;;;;;;;;;0.67;0.67;;;;;13.82;53.70;100956.94;5073947;28;46529;-79
2022/02/04 13:28:15;;;;;;;;;0.00;0.00;;;;;13.81;53.91;100975.53;5071019;28;45551;-80
2022/02/04 13:30:49;;;;;;;;;2.00;0.00;;;;;13.59;53.82;100970.22;5072662;27;45429;-80
2022/02/04 13:33:19;;;;;;;;;0.00;0.00;;;;;13.55;54.86;100983.47;5049536;28;45508;-78
2022/02/04 13:36:10;;;;;;;;;1.00;0.00;;;;;13.50;54.59;100980.81;5068544;27;46528;-78
2022/02/04 13:38:46;;;;;;;;;1.67;0.00;;;;;13.43;54.79;100981.69;5055918;28;45459;-80
2022/02/04 13:41:30;;;;;;;;;0.00;0.00;;;;;13.34;54.76;100957.81;5055866;28;45981;-78
2022/02/04 13:44:38;;;;;;;;;0.00;0.00;;;;;13.44;55.35;100980.81;5050245;28;45907;-77
2022/02/04 13:47:27;;;;;;;;;1.00;0.00;;;;;13.36;55.57;100977.25;5064231;28;46009;-77
2022/02/04 13:57:52;;;;;;;;;1.00;1.00;;;;;13.27;56.92;100978.13;5063681;27;46322;-79
2022/02/04 14:03:11;;;;;;;;;0.00;0.00;;;;;13.34;57.01;100986.97;5071203;28;45718;-83
2022/02/04 14:05:45;;;;;;;;;2.00;0.00;;;;;13.41;56.94;100995.81;5042082;28;45401;-80
2022/02/04 14:08:14;;;;;;;;;0.00;0.00;;;;;13.40;57.03;100997.59;5058159;28;46271;-79
2022/02/04 14:10:58;;;;;;;;;0.00;0.00;;;;;13.30;57.65;100971.94;5069692;28;45383;-79
2022/02/04 14:13:25;;;;;;;;;1.00;0.00;;;;;13.30;57.41;100987.84;5066360;28;45388;-77
2022/02/04 14:15:57;;;;;;;;;1.67;0.33;;;;;13.19;57.81;100979.81;5040955;28;45463;-78
2022/02/04 14:18:23;;;;;;;;;2.00;0.00;;;;;13.23;58.26;101000.22;5056627;28;48468;-78
2022/02/04 14:20:48;;;;;;;;;0.00;0.00;;;;;13.17;58.40;100988.66;5069524;28;45500;-76
2022/02/04 14:23:14;;;;;;;;;0.00;0.00;;;;;13.23;58.81;100992.25;5058716;28;45574;-79
2022/02/04 14:26:05;;;;;;;;;0.00;0.00;;;;;13.21;59.51;101006.34;5056809;28;45297;-79
2022/02/04 14:31:22;;;;;;;;;0.00;0.00;;;;;12.93;60.16;101011.53;5055014;28;45502;-79
2022/02/04 14:34:39;;;;;;;;;2.67;1.00;;;;;12.85;61.68;101008.88;5068993;28;45309;-80
2022/02/04 15:00:39;;;;;;;;;1.33;0.00;;;;;12.18;66.23;101130.25;5076700;27;45376;-74
2022/02/04 15:05:40;;;;;;;;;0.00;0.00;;;;;12.12;66.89;101147.84;5095378;27;45557;-75
2022/02/04 15:08:10;;;;;;;;;2.00;1.00;;;;;12.03;67.29;101173.31;5078058;27;45607;-74
2022/02/04 15:10:37;;;;;;;;;1.00;1.00;;;;;11.98;67.36;101163.56;5078015;27;47519;-74
2022/02/04 15:13:07;;;;;;;;;1.67;1.00;;;;;11.90;67.13;101165.25;5095716;27;45526;-75
2022/02/04 15:15:32;;;;;;;;;2.00;0.00;;;;;11.82;67.35;101153.69;5076092;27;45573;-74
2022/02/04 15:17:57;;;;;;;;;0.33;0.33;;;;;11.82;67.39;101175.72;5061063;27;45336;-75
2022/02/04 15:20:23;;;;;;;;;0.33;0.00;;;;;11.76;67.17;101165.06;5088979;27;45417;-73
2022/02/04 15:22:49;;;;;;;;;2.00;2.00;;;;;11.73;67.60;101202.06;5093918;27;45322;-74
2022/02/04 15:25:20;;;;;;;;;2.33;1.33;;;;;11.63;67.38;101190.47;5095343;27;45548;-74
2022/02/04 15:27:56;;;;;;;;;0.33;0.00;;;;;11.54;67.30;101220.34;5074661;27;46800;-74
2022/02/04 15:30:28;;;;;;;;;0.00;0.00;;;;;11.41;67.81;101226.34;5078635;27;45937;-74
2022/02/04 15:32:55;;;;;;;;;0.00;0.00;;;;;11.41;67.80;101243.97;5071780;27;47048;-75
2022/02/04 15:35:20;;;;;;;;;1.00;0.00;;;;;11.30;67.95;101227.94;5091807;27;45528;-75
2022/02/04 15:37:46;;;;;;;;;1.67;0.33;;;;;11.18;68.06;101230.38;5096410;27;45671;-74
2022/02/04 15:40:12;;;;;;;;;0.00;0.00;;;;;11.05;68.15;101224.03;5087089;27;53753;-75
2022/02/04 15:42:43;;;;;;;;;1.00;1.00;;;;;11.17;68.38;101247.13;5094366;27;45529;-74
2022/02/04 15:45:28;;;;;;;;;1.00;0.00;;;;;11.07;68.24;101231.97;5089197;27;45355;-74
2022/02/04 15:53:23;;;;;;;;;0.67;0.67;;;;;11.09;67.50;101254.06;5074877;28;45530;-74
2022/02/04 16:01:28;;;;;;;;;0.00;0.00;;;;;10.98;66.60;101270.63;5075447;28;46193;-75
2022/02/04 16:06:22;;;;;;;;;0.00;0.00;;;;;10.90;65.79;101301.31;5075947;28;45418;-74
2022/02/04 16:08:50;;;;;;;;;0.67;0.00;;;;;10.88;65.42;101315.38;5073641;28;45463;-74
2022/02/04 16:11:29;;;;;;;;;2.00;0.00;;;;;10.71;65.37;101288.66;5037154;28;46670;-75
2022/02/04 16:14:15;;;;;;;;;1.33;0.00;;;;;10.72;65.02;101306.28;5059626;28;45548;-75
2022/02/04 16:16:45;;;;;;;;;0.00;0.00;;;;;10.67;64.70;101316.75;5072207;28;45480;-74
2022/02/04 16:22:05;;;;;;;;;1.00;1.00;;;;;10.57;64.03;101327.13;5069305;28;45593;-75
2022/02/04 16:29:54;;;;;;;;;1.00;1.00;;;;;10.40;63.97;101356.72;5045262;28;47375;-74
2022/02/04 16:32:19;;;;;;;;;0.00;0.00;;;;;10.36;63.31;101354.88;5049618;28;45895;-74
2022/02/04 16:34:53;;;;;;;;;2.00;1.00;;;;;10.29;62.09;101368.81;5074188;28;47859;-76
2022/02/04 16:37:27;;;;;;;;;0.00;0.00;;;;;10.15;61.74;101371.13;5073761;28;45489;-78
2022/02/04 16:39:53;;;;;;;;;4.00;0.00;;;;;10.01;61.00;101366.38;5053873;28;47422;-78
2022/02/04 16:42:18;;;;;;;;;2.00;0.67;;;;;9.97;61.49;101378.66;5056205;28;47228;-78
2022/02/04 16:44:44;;;;;;;;;0.67;0.67;;;;;9.75;60.02;101360.53;5033239;28;58249;-77
2022/02/04 16:47:09;;;;;;;;;0.00;0.00;;;;;9.66;59.74;101390.25;5057482;28;56202;-78
2022/02/04 16:49:37;;;;;;;;;2.67;1.67;;;;;9.59;60.74;101393.59;5039610;28;49494;-77
2022/02/04 16:52:10;;;;;;;;;2.00;0.00;;;;;9.56;60.28;101404.06;5036980;28;47769;-79
2022/02/04 16:54:37;;;;;;;;;1.00;1.00;;;;;9.45;60.54;101393.25;5018458;28;45561;-78
2022/02/04 16:57:03;;;;;;;;;0.33;0.33;;;;;9.26;60.42;101378.72;5038716;27;45487;-79
2022/02/04 16:59:28;;;;;;;;;2.33;1.00;;;;;9.35;60.73;101407.94;5018842;28;45663;-78
2022/02/04 17:01:54;;;;;;;;;1.00;1.00;;;;;9.43;61.13;101427.47;5066955;28;45832;-79
2022/02/04 17:04:19;;;;;;;;;3.00;0.00;;;;;9.43;60.85;101429.22;5014748;28;46284;-78
2022/02/04 17:06:45;;;;;;;;;2.00;2.00;;;;;9.41;60.71;101450.25;5035602;28;46677;-79
2022/02/04 17:11:44;;;;;;;;;1.67;1.67;;;;;9.43;61.52;101459.09;5040007;28;46336;-74
2022/02/04 17:14:10;;;;;;;;;2.00;2.00;;;;;9.44;61.66;101460.88;5056200;28;45441;-74
2022/02/04 17:16:41;;;;;;;;;2.00;2.00;;;;;9.49;61.80;101460.13;5053475;28;45500;-74
2022/02/04 17:19:06;;;;;;;;;1.00;1.00;;;;;9.50;61.72;101483.88;5036643;28;45503;-75
2022/02/04 17:21:34;;;;;;;;;2.00;1.00;;;;;9.50;61.55;101470.69;5038432;28;47700;-74
2022/02/04 17:24:00;;;;;;;;;1.00;1.00;;;;;9.51;61.53;101479.50;5071215;28;45465;-75
2022/02/04 17:26:25;;;;;;;;;1.00;1.00;;;;;9.50;61.89;101478.59;5072373;28;45325;-75
2022/02/04 17:28:51;;;;;;;;;1.00;1.00;;;;;9.53;61.80;101478.66;5063578;28;52658;-74
2022/02/04 17:31:16;;;;;;;;;2.00;2.00;;;;;9.57;62.08;101492.81;5069816;28;47603;-75
2022/02/04 18:11:58;;;;;;;;;11.00;6.25;;;;;9.37;60.54;101582.78;5154442;27;45926;-75
2022/02/04 18:14:23;;;;;;;;;7.25;6.00;;;;;9.36;60.29;101588.03;5156478;27;51378;-77
2022/02/04 18:16:49;;;;;;;;;3.75;3.75;;;;;9.29;60.27;101591.34;5255476;22;45582;-76
2022/02/04 18:19:14;;;;;;;;;6.00;4.00;;;;;9.29;59.30;101594.00;5091350;27;49025;-76
2022/02/04 18:21:40;;;;;;;;;11.50;7.50;;;;;9.30;60.26;101591.41;5059737;27;55979;-75
2022/02/04 18:24:05;;;;;;;;;12.50;7.00;;;;;9.28;60.34;101593.09;5097557;27;45473;-75
2022/02/04 18:26:31;;;;;;;;;12.50;8.25;;;;;9.28;60.43;101603.66;5097476;27;45555;-75
2022/02/04 18:28:56;;;;;;;;;8.00;4.00;;;;;9.28;60.33;101594.84;5094141;27;45975;-75
2022/02/04 18:31:23;;;;;;;;;7.50;7.50;;;;;9.17;60.57;101590.16;5090119;27;45744;-75
2022/02/04 18:38:14;;;;;;;;;17.50;7.25;;;;;9.15;60.44;101606.75;5093969;27;45542;-76
2022/02/04 18:46:04;;;;;;;;;13.50;5.00;;;;;8.98;60.79;101608.91;5099115;27;45922;-74
2022/02/04 18:48:46;;;;;;;;;11.25;11.00;;;;;8.95;60.76;101611.47;5094185;27;45882;-75
2022/02/04 18:53:54;;;;;;;;;75.50;58.75;;;;;9.03;60.98;101635.38;5094540;27;46273;-74
2022/02/04 18:57:22;;;;;;;;;22.50;19.00;;;;;9.01;60.97;101631.81;5098429;27;45437;-74
2022/02/04 18:59:15;;;;;;;;;22.50;21.25;;;;;8.91;61.01;101617.47;5089281;27;45231;-74